Time;durP1;ratioP1;P1;durP2;ratioP2;P2;SDS_P1;SDS_P2;PMS_P1;PMS_P2;Temp;Humidity;BMP_temperature;BMP_pressure;BME280_temperature;BME280_humidity;BME280_pressure;Samples;Min_cycle;Max_cycle;Signal;HPM_P1;HPM_P2
2023/10/19 00:00:50;;;;;;;17.48;8.65;;;;;;;;;;5066261;28;20101;-64
2023/10/19 00:03:16;;;;;;;14.10;7.78;;;;;;;;;;5062914;28;20052;-65
2023/10/19 00:05:44;;;;;;;19.05;8.48;;;;;;;;;;5063301;28;20041;-64
2023/10/19 00:08:17;;;;;;;15.88;8.27;;;;;;;;;;5064851;28;20056;-65
2023/10/19 00:10:45;;;;;;;19.95;8.65;;;;;;;;;;5065139;28;20139;-64
2023/10/19 00:13:14;;;;;;;16.88;8.95;;;;;;;;;;5057552;28;20049;-66
2023/10/19 00:15:47;;;;;;;20.58;9.02;;;;;;;;;;5059167;28;20041;-64
2023/10/19 00:18:23;;;;;;;18.60;9.13;;;;;;;;;;5054894;28;20045;-65
2023/10/19 00:20:54;;;;;;;23.77;9.55;;;;;;;;;;5062572;28;20044;-65
2023/10/19 00:23:31;;;;;;;19.83;10.20;;;;;;;;;;5057615;28;20040;-65
2023/10/19 00:25:58;;;;;;;19.90;9.63;;;;;;;;;;5064412;28;20083;-65
2023/10/19 00:28:27;;;;;;;20.83;9.90;;;;;;;;;;5060391;28;20293;-64
2023/10/19 00:31:00;;;;;;;20.73;9.77;;;;;;;;;;5065613;28;20063;-65
2023/10/19 00:33:30;;;;;;;18.13;9.55;;;;;;;;;;5063667;28;20094;-64
2023/10/19 00:36:07;;;;;;;20.13;10.07;;;;;;;;;;5067408;28;20151;-64
2023/10/19 00:38:41;;;;;;;20.73;10.38;;;;;;;;;;5061941;28;20478;-65
2023/10/19 00:41:13;;;;;;;19.92;10.13;;;;;;;;;;5066819;28;20055;-64
2023/10/19 00:43:44;;;;;;;20.02;10.20;;;;;;;;;;5063681;28;20052;-65
2023/10/19 00:46:15;;;;;;;19.92;10.52;;;;;;;;;;5057189;28;20058;-64
2023/10/19 00:48:46;;;;;;;20.58;10.18;;;;;;;;;;5063367;28;20094;-65
2023/10/19 00:51:26;;;;;;;20.83;11.13;;;;;;;;;;5065529;28;20376;-66
2023/10/19 00:53:55;;;;;;;20.95;10.90;;;;;;;;;;5068998;28;20124;-65
2023/10/19 00:56:23;;;;;;;21.90;10.70;;;;;;;;;;5064512;28;20098;-64
2023/10/19 00:58:53;;;;;;;20.35;10.40;;;;;;;;;;5064517;28;20159;-65
2023/10/19 01:01:24;;;;;;;27.90;11.48;;;;;;;;;;5070540;28;20101;-65
2023/10/19 01:03:56;;;;;;;22.65;10.93;;;;;;;;;;5067514;28;20102;-66
2023/10/19 01:06:23;;;;;;;21.02;11.88;;;;;;;;;;5063959;28;20049;-65
2023/10/19 01:08:51;;;;;;;24.80;11.13;;;;;;;;;;5061414;28;20061;-64
2023/10/19 01:11:20;;;;;;;21.52;11.15;;;;;;;;;;5067246;28;20053;-64
2023/10/19 01:13:48;;;;;;;24.10;11.82;;;;;;;;;;5066307;28;20097;-64
2023/10/19 01:16:20;;;;;;;22.90;11.60;;;;;;;;;;5060411;28;20052;-65
2023/10/19 01:18:48;;;;;;;25.10;11.52;;;;;;;;;;5066199;28;20053;-64
2023/10/19 01:21:20;;;;;;;21.83;11.18;;;;;;;;;;5058363;28;20045;-64
2023/10/19 01:23:49;;;;;;;22.50;11.43;;;;;;;;;;5064662;28;20051;-65
2023/10/19 01:26:22;;;;;;;20.88;11.55;;;;;;;;;;5066217;28;20053;-67
2023/10/19 01:28:53;;;;;;;22.75;11.93;;;;;;;;;;5059626;28;20450;-66
2023/10/19 01:31:30;;;;;;;22.05;11.90;;;;;;;;;;5067676;28;20063;-64
2023/10/19 01:33:58;;;;;;;24.65;12.20;;;;;;;;;;5061704;28;20048;-66
2023/10/19 01:36:26;;;;;;;27.55;12.43;;;;;;;;;;5066877;28;20130;-64
2023/10/19 01:38:55;;;;;;;22.13;11.85;;;;;;;;;;5065633;28;20137;-64
2023/10/19 01:41:23;;;;;;;22.88;11.55;;;;;;;;;;5067974;28;20110;-64
2023/10/19 01:43:50;;;;;;;21.35;11.50;;;;;;;;;;5064490;28;20047;-65
2023/10/19 01:46:23;;;;;;;28.48;12.55;;;;;;;;;;5062421;28;20551;-66
2023/10/19 01:48:53;;;;;;;27.42;11.82;;;;;;;;;;5066731;28;20045;-65
2023/10/19 01:51:22;;;;;;;23.42;12.13;;;;;;;;;;5065533;28;20435;-64
2023/10/19 01:53:48;;;;;;;24.45;12.07;;;;;;;;;;5065155;28;20519;-64
2023/10/19 01:56:18;;;;;;;22.90;12.10;;;;;;;;;;5056075;28;20487;-65
2023/10/19 01:58:47;;;;;;;22.15;12.02;;;;;;;;;;5062171;28;20045;-65
2023/10/19 02:01:20;;;;;;;21.52;11.38;;;;;;;;;;5062099;28;20724;-64
2023/10/19 02:03:53;;;;;;;21.90;11.23;;;;;;;;;;5059849;28;20047;-67
2023/10/19 02:06:19;;;;;;;28.23;11.33;;;;;;;;;;5061529;28;20082;-65
2023/10/19 02:08:50;;;;;;;22.95;12.68;;;;;;;;;;5058761;28;20366;-64
2023/10/19 02:11:21;;;;;;;20.83;11.88;;;;;;;;;;5059399;28;20131;-67
2023/10/19 02:13:50;;;;;;;24.98;11.57;;;;;;;;;;5056694;28;20134;-65
2023/10/19 02:16:16;;;;;;;22.02;11.23;;;;;;;;;;5061484;28;20049;-65
2023/10/19 02:18:44;;;;;;;19.30;10.95;;;;;;;;;;5058761;28;20052;-65
2023/10/19 02:21:12;;;;;;;23.45;11.25;;;;;;;;;;5057199;28;20041;-64
2023/10/19 02:23:41;;;;;;;23.25;11.20;;;;;;;;;;5058546;28;20045;-64
2023/10/19 02:26:08;;;;;;;23.00;10.95;;;;;;;;;;5060225;28;20057;-64
2023/10/19 02:28:38;;;;;;;22.00;10.60;;;;;;;;;;5062839;28;20124;-65
2023/10/19 02:31:15;;;;;;;25.58;10.90;;;;;;;;;;5054825;28;20053;-64
2023/10/19 02:33:45;;;;;;;25.23;10.50;;;;;;;;;;5058996;28;20041;-65
2023/10/19 02:36:13;;;;;;;23.55;10.60;;;;;;;;;;5055727;28;20131;-64
2023/10/19 02:38:48;;;;;;;21.17;10.20;;;;;;;;;;5062907;28;20373;-64
2023/10/19 02:41:15;;;;;;;19.33;10.20;;;;;;;;;;5062276;28;20049;-65
2023/10/19 02:43:46;;;;;;;21.45;10.27;;;;;;;;;;5057575;28;20483;-64
2023/10/19 02:46:13;;;;;;;20.17;9.13;;;;;;;;;;5059161;28;20057;-65
2023/10/19 02:48:44;;;;;;;18.15;9.68;;;;;;;;;;5066504;28;20048;-64
2023/10/19 02:51:10;;;;;;;18.98;9.02;;;;;;;;;;5058863;28;20492;-64
2023/10/19 02:53:39;;;;;;;15.85;8.95;;;;;;;;;;5056048;28;20072;-64
2023/10/19 02:56:12;;;;;;;17.35;8.77;;;;;;;;;;5066625;28;20685;-65
2023/10/19 02:58:42;;;;;;;;;;;;;;;;;;5066540;28;20051;-64
2023/10/19 03:01:17;;;;;;;16.92;8.05;;;;;;;;;;5062515;28;19924;-65
2023/10/19 03:03:46;;;;;;;17.70;8.00;;;;;;;;;;5060076;28;20076;-64
2023/10/19 03:06:13;;;;;;;13.75;7.50;;;;;;;;;;5060395;28;20090;-67
2023/10/19 03:08:39;;;;;;;13.30;7.55;;;;;;;;;;5060555;28;20499;-64
2023/10/19 03:11:08;;;;;;;18.15;7.30;;;;;;;;;;5056640;28;20048;-65
2023/10/19 03:13:35;;;;;;;14.88;7.72;;;;;;;;;;5062630;28;20098;-64
2023/10/19 03:16:07;;;;;;;12.52;6.78;;;;;;;;;;5063126;28;20080;-65
2023/10/19 03:18:35;;;;;;;17.30;6.53;;;;;;;;;;5063118;28;20056;-66
2023/10/19 03:21:02;;;;;;;12.73;6.38;;;;;;;;;;5052722;28;20135;-66
2023/10/19 03:23:28;;;;;;;12.65;6.30;;;;;;;;;;5064940;28;20479;-66
2023/10/19 03:28:38;;;;;;;11.48;6.13;;;;;;;;;;5066055;28;20127;-65
2023/10/19 03:31:04;;;;;;;13.07;6.00;;;;;;;;;;5054186;28;20053;-64
2023/10/19 03:33:32;;;;;;;11.68;5.72;;;;;;;;;;5067437;28;20036;-64
2023/10/19 03:36:05;;;;;;;14.70;5.68;;;;;;;;;;5064065;28;20067;-65
2023/10/19 03:38:36;;;;;;;11.68;5.30;;;;;;;;;;5061079;28;20052;-65
2023/10/19 03:41:08;;;;;;;9.27;5.50;;;;;;;;;;5065665;28;20758;-64
2023/10/19 03:43:36;;;;;;;12.65;6.18;;;;;;;;;;5061765;28;20131;-67
2023/10/19 03:46:09;;;;;;;16.45;5.88;;;;;;;;;;5059606;28;20067;-65
2023/10/19 03:48:38;;;;;;;11.48;5.90;;;;;;;;;;5063078;28;20182;-65
2023/10/19 03:51:11;;;;;;;12.90;6.18;;;;;;;;;;5063639;28;20052;-64
2023/10/19 03:53:39;;;;;;;9.48;5.30;;;;;;;;;;5057165;28;21271;-65
2023/10/19 03:56:10;;;;;;;10.55;5.53;;;;;;;;;;5066861;28;20385;-65
2023/10/19 03:58:41;;;;;;;11.63;5.38;;;;;;;;;;5062634;28;20484;-65
2023/10/19 04:01:10;;;;;;;11.00;5.70;;;;;;;;;;5059685;28;20110;-64
2023/10/19 04:03:38;;;;;;;9.18;5.13;;;;;;;;;;5061415;28;20122;-65
2023/10/19 04:06:05;;;;;;;7.72;4.18;;;;;;;;;;5060452;28;20059;-65
2023/10/19 04:08:37;;;;;;;13.52;4.72;;;;;;;;;;5058018;28;20400;-65
2023/10/19 04:11:21;;;;;;;9.10;4.80;;;;;;;;;;5065353;28;20048;-64
2023/10/19 04:13:52;;;;;;;8.70;4.75;;;;;;;;;;5059032;28;20118;-65
2023/10/19 04:16:20;;;;;;;9.43;4.93;;;;;;;;;;5052251;28;20365;-64
2023/10/19 04:18:48;;;;;;;7.70;4.25;;;;;;;;;;5055620;28;20539;-65
2023/10/19 04:21:16;;;;;;;7.53;4.05;;;;;;;;;;5058640;28;20480;-65
2023/10/19 04:23:46;;;;;;;8.68;4.47;;;;;;;;;;5060798;28;20051;-65
2023/10/19 04:26:14;;;;;;;9.40;4.32;;;;;;;;;;5062418;28;20131;-66
2023/10/19 04:28:49;;;;;;;11.35;4.95;;;;;;;;;;5065152;28;20056;-64
2023/10/19 04:31:17;;;;;;;7.53;4.43;;;;;;;;;;5060882;28;20044;-64
2023/10/19 04:33:47;;;;;;;8.25;4.40;;;;;;;;;;5058818;28;20503;-65
2023/10/19 04:36:21;;;;;;;8.77;4.85;;;;;;;;;;5057116;28;20135;-65
2023/10/19 04:38:49;;;;;;;8.73;5.00;;;;;;;;;;5054445;28;20056;-66
2023/10/19 04:41:17;;;;;;;11.40;4.93;;;;;;;;;;5054884;28;20455;-65
2023/10/19 04:43:49;;;;;;;9.35;4.93;;;;;;;;;;5063935;28;20579;-64
2023/10/19 04:46:18;;;;;;;9.63;4.60;;;;;;;;;;5063495;28;20045;-64
2023/10/19 04:48:45;;;;;;;8.93;4.95;;;;;;;;;;5057533;28;20485;-66
2023/10/19 04:51:13;;;;;;;7.95;4.30;;;;;;;;;;5066844;28;20041;-67
2023/10/19 04:53:41;;;;;;;8.45;4.75;;;;;;;;;;5057728;28;20051;-64
2023/10/19 04:56:12;;;;;;;9.80;4.65;;;;;;;;;;5059313;28;20488;-64
2023/10/19 04:58:39;;;;;;;7.90;4.65;;;;;;;;;;5059539;28;20498;-66
2023/10/19 05:01:07;;;;;;;10.75;4.75;;;;;;;;;;5056866;28;20048;-66
2023/10/19 05:03:35;;;;;;;11.80;4.75;;;;;;;;;;5056383;28;20049;-65
2023/10/19 05:06:02;;;;;;;7.95;4.43;;;;;;;;;;5058628;28;20053;-65
2023/10/19 05:08:30;;;;;;;9.23;4.80;;;;;;;;;;5057827;28;20080;-64
2023/10/19 05:10:59;;;;;;;10.38;5.07;;;;;;;;;;5064723;28;20052;-64
2023/10/19 05:13:28;;;;;;;9.35;4.25;;;;;;;;;;5062247;28;20391;-64
2023/10/19 05:15:56;;;;;;;10.25;4.68;;;;;;;;;;5062766;28;20045;-65
2023/10/19 05:18:23;;;;;;;6.85;4.10;;;;;;;;;;5061011;28;20106;-64
2023/10/19 05:20:55;;;;;;;7.05;4.20;;;;;;;;;;5065489;28;20053;-64
2023/10/19 05:23:23;;;;;;;7.35;4.15;;;;;;;;;;5060191;28;20048;-65
2023/10/19 05:25:52;;;;;;;6.28;3.53;;;;;;;;;;5069960;28;20052;-64
2023/10/19 05:28:21;;;;;;;5.45;3.60;;;;;;;;;;5064647;28;20044;-65
2023/10/19 05:30:50;;;;;;;7.07;4.03;;;;;;;;;;5070449;28;20106;-65
2023/10/19 05:33:20;;;;;;;10.25;4.38;;;;;;;;;;5067414;28;20045;-65
2023/10/19 05:35:48;;;;;;;6.63;3.58;;;;;;;;;;5067036;28;20098;-65
2023/10/19 05:38:15;;;;;;;6.38;3.65;;;;;;;;;;5062818;28;20045;-65
2023/10/19 05:40:43;;;;;;;9.43;3.83;;;;;;;;;;5059644;28;20052;-65
2023/10/19 05:43:11;;;;;;;5.60;3.58;;;;;;;;;;5066202;28;20044;-64
2023/10/19 05:45:38;;;;;;;5.45;3.28;;;;;;;;;;5060024;28;20071;-65
2023/10/19 05:48:08;;;;;;;7.13;3.47;;;;;;;;;;5063362;28;20044;-65
2023/10/19 05:50:35;;;;;;;12.07;3.75;;;;;;;;;;5060799;28;20128;-64
2023/10/19 05:53:03;;;;;;;9.05;3.97;;;;;;;;;;5068522;28;20059;-65
2023/10/19 05:55:31;;;;;;;6.57;3.55;;;;;;;;;;5059278;28;20488;-64
2023/10/19 05:57:58;;;;;;;9.27;4.00;;;;;;;;;;5061451;28;20048;-66
2023/10/19 06:00:26;;;;;;;6.00;3.28;;;;;;;;;;5063229;28;20049;-65
2023/10/19 06:02:54;;;;;;;6.35;3.30;;;;;;;;;;5059032;28;20049;-64
2023/10/19 06:05:23;;;;;;;7.30;3.67;;;;;;;;;;5064617;28;20052;-64
2023/10/19 06:07:51;;;;;;;5.78;3.58;;;;;;;;;;5066796;28;20135;-65
2023/10/19 06:10:20;;;;;;;6.72;3.95;;;;;;;;;;5064744;28;20046;-65
2023/10/19 06:12:48;;;;;;;6.80;4.22;;;;;;;;;;5059874;28;20059;-64
2023/10/19 06:15:15;;;;;;;7.25;3.63;;;;;;;;;;5063367;28;20040;-65
2023/10/19 06:17:44;;;;;;;4.57;3.20;;;;;;;;;;5064504;28;20040;-65
2023/10/19 06:20:23;;;;;;;6.60;3.55;;;;;;;;;;5063396;28;20045;-64
2023/10/19 06:22:52;;;;;;;5.93;3.60;;;;;;;;;;5059876;28;20055;-65
2023/10/19 06:25:21;;;;;;;6.78;3.50;;;;;;;;;;5061255;28;20052;-65
2023/10/19 06:27:48;;;;;;;6.53;3.70;;;;;;;;;;5064232;28;20048;-65
2023/10/19 06:30:18;;;;;;;8.23;4.05;;;;;;;;;;5068202;28;20059;-64
2023/10/19 06:32:50;;;;;;;7.60;4.00;;;;;;;;;;5064111;28;20068;-67
2023/10/19 06:35:17;;;;;;;8.88;4.07;;;;;;;;;;5059265;28;20127;-65
2023/10/19 06:37:45;;;;;;;6.50;4.05;;;;;;;;;;5061094;28;20055;-64
2023/10/19 06:40:14;;;;;;;8.93;4.20;;;;;;;;;;5062282;28;20052;-65
2023/10/19 06:42:42;;;;;;;9.10;4.10;;;;;;;;;;5058616;28;20050;-64
2023/10/19 06:45:13;;;;;;;8.02;4.30;;;;;;;;;;5067473;28;20044;-64
2023/10/19 06:47:41;;;;;;;10.13;4.20;;;;;;;;;;5053109;28;20056;-64
2023/10/19 06:50:10;;;;;;;9.05;3.95;;;;;;;;;;5055713;28;20053;-64
2023/10/19 06:52:37;;;;;;;10.20;4.13;;;;;;;;;;5054252;28;20088;-65
2023/10/19 06:55:05;;;;;;;9.60;4.15;;;;;;;;;;5061279;28;20048;-65
2023/10/19 06:57:33;;;;;;;7.57;3.90;;;;;;;;;;5063530;28;20150;-64
2023/10/19 07:00:10;;;;;;;8.02;4.05;;;;;;;;;;5063392;28;20547;-64
2023/10/19 07:02:38;;;;;;;9.98;4.13;;;;;;;;;;5062105;28;20086;-66
2023/10/19 07:05:06;;;;;;;9.00;4.50;;;;;;;;;;5060786;28;20045;-64
2023/10/19 07:07:33;;;;;;;6.75;3.88;;;;;;;;;;5059294;28;20118;-65
2023/10/19 07:10:03;;;;;;;11.95;4.50;;;;;;;;;;5064403;28;20060;-65
2023/10/19 07:12:30;;;;;;;17.50;4.82;;;;;;;;;;5063052;28;20049;-65
2023/10/19 07:15:00;;;;;;;8.02;4.45;;;;;;;;;;5063031;28;20036;-65
2023/10/19 07:17:28;;;;;;;7.63;4.47;;;;;;;;;;5054267;28;20045;-65
2023/10/19 07:19:56;;;;;;;8.30;4.15;;;;;;;;;;5058993;28;20068;-66
2023/10/19 07:22:24;;;;;;;7.90;4.43;;;;;;;;;;5059436;28;20055;-65
2023/10/19 07:24:52;;;;;;;8.02;5.05;;;;;;;;;;5056710;28;20044;-64
2023/10/19 07:27:19;;;;;;;9.73;5.93;;;;;;;;;;5059668;28;20052;-64
2023/10/19 07:29:47;;;;;;;6.78;5.35;;;;;;;;;;5062889;28;20178;-64
2023/10/19 07:32:16;;;;;;;9.10;4.85;;;;;;;;;;5067476;28;20128;-65
2023/10/19 07:34:45;;;;;;;8.07;4.30;;;;;;;;;;5059163;28;20052;-64
2023/10/19 07:37:15;;;;;;;8.95;5.03;;;;;;;;;;5057827;28;20064;-65
2023/10/19 07:39:42;;;;;;;11.27;4.43;;;;;;;;;;5062780;28;20056;-64
2023/10/19 07:42:11;;;;;;;8.85;4.32;;;;;;;;;;5064005;28;20044;-64
2023/10/19 07:44:38;;;;;;;15.93;4.80;;;;;;;;;;5068217;28;20051;-65
2023/10/19 07:47:07;;;;;;;10.38;4.47;;;;;;;;;;5061424;28;20086;-64
2023/10/19 07:49:38;;;;;;;11.75;4.88;;;;;;;;;;5056721;28;20045;-66
2023/10/19 07:52:06;;;;;;;9.20;4.32;;;;;;;;;;5059272;28;20040;-64
2023/10/19 07:54:34;;;;;;;7.05;4.40;;;;;;;;;;5064224;28;20133;-65
2023/10/19 07:57:05;;;;;;;7.72;4.68;;;;;;;;;;5063548;28;20415;-65
2023/10/19 07:59:32;;;;;;;7.25;4.57;;;;;;;;;;5061127;28;20098;-65
2023/10/19 08:02:02;;;;;;;7.43;4.15;;;;;;;;;;5066027;28;20057;-65
2023/10/19 08:04:30;;;;;;;10.20;5.03;;;;;;;;;;5058122;28;20464;-64
2023/10/19 08:06:59;;;;;;;8.38;4.50;;;;;;;;;;5061397;28;20488;-64
2023/10/19 08:09:31;;;;;;;7.88;4.45;;;;;;;;;;5051491;28;20048;-65
2023/10/19 08:11:59;;;;;;;9.68;4.75;;;;;;;;;;5066424;28;20135;-64
2023/10/19 08:14:26;;;;;;;7.68;4.75;;;;;;;;;;5053715;28;20084;-65
2023/10/19 08:16:54;;;;;;;8.82;4.90;;;;;;;;;;5053495;28;20059;-66
2023/10/19 08:19:21;;;;;;;8.50;5.25;;;;;;;;;;5058780;28;20052;-64
2023/10/19 08:21:48;;;;;;;9.73;5.00;;;;;;;;;;5058546;28;20389;-65
2023/10/19 08:24:18;;;;;;;11.40;5.70;;;;;;;;;;5058491;28;20049;-64
2023/10/19 08:26:46;;;;;;;9.20;4.78;;;;;;;;;;5065620;28;20423;-65
2023/10/19 08:29:13;;;;;;;10.63;5.05;;;;;;;;;;5063811;28;20048;-66
2023/10/19 08:31:41;;;;;;;8.95;5.10;;;;;;;;;;5055876;28;20041;-65
2023/10/19 08:34:11;;;;;;;11.80;5.72;;;;;;;;;;5061994;28;20048;-65
2023/10/19 08:36:38;;;;;;;10.50;5.22;;;;;;;;;;5061305;28;20124;-66
2023/10/19 08:39:06;;;;;;;11.50;5.28;;;;;;;;;;5059949;28;20052;-64
2023/10/19 08:41:37;;;;;;;12.20;5.63;;;;;;;;;;5065166;28;20052;-65
2023/10/19 08:44:10;;;;;;;10.52;5.40;;;;;;;;;;5060849;28;20112;-64
2023/10/19 08:46:38;;;;;;;14.15;5.38;;;;;;;;;;5064584;28;20076;-65
2023/10/19 08:49:09;;;;;;;9.88;5.40;;;;;;;;;;5062470;28;20116;-65
2023/10/19 08:51:37;;;;;;;12.48;5.68;;;;;;;;;;5060012;28;20048;-65
2023/10/19 08:54:06;;;;;;;13.65;5.93;;;;;;;;;;5062420;28;20056;-65
2023/10/19 08:56:33;;;;;;;11.55;5.88;;;;;;;;;;5068256;28;20060;-64
2023/10/19 08:59:02;;;;;;;10.52;5.43;;;;;;;;;;5065117;28;20110;-64
2023/10/19 09:01:30;;;;;;;11.30;5.80;;;;;;;;;;5068161;28;20525;-64
2023/10/19 09:03:58;;;;;;;11.32;5.15;;;;;;;;;;5066433;28;20127;-64
2023/10/19 09:06:26;;;;;;;11.40;5.40;;;;;;;;;;5065180;28;20049;-64
2023/10/19 09:08:57;;;;;;;11.02;5.88;;;;;;;;;;5063597;28;20041;-65
2023/10/19 09:11:25;;;;;;;11.15;5.35;;;;;;;;;;5064981;28;20048;-65
2023/10/19 09:13:53;;;;;;;13.27;5.47;;;;;;;;;;5066117;28;20055;-64
2023/10/19 09:16:22;;;;;;;11.13;5.35;;;;;;;;;;5064229;28;20052;-64
2023/10/19 09:18:50;;;;;;;9.90;5.35;;;;;;;;;;5063991;28;20056;-64
2023/10/19 09:21:24;;;;;;;10.15;5.68;;;;;;;;;;5057571;28;20052;-66
2023/10/19 09:23:52;;;;;;;13.60;5.68;;;;;;;;;;5070498;28;20052;-65
2023/10/19 09:26:21;;;;;;;12.13;5.75;;;;;;;;;;5067878;28;20067;-65
2023/10/19 09:28:49;;;;;;;12.25;5.63;;;;;;;;;;5067227;28;20052;-66
2023/10/19 09:31:17;;;;;;;12.07;5.95;;;;;;;;;;5062283;28;20072;-64
2023/10/19 09:33:47;;;;;;;11.25;5.45;;;;;;;;;;5062319;28;20048;-64
2023/10/19 09:36:14;;;;;;;13.15;6.03;;;;;;;;;;5062389;28;20444;-64
2023/10/19 09:38:48;;;;;;;7.97;5.10;;;;;;;;;;5069240;28;20057;-64
2023/10/19 09:41:17;;;;;;;9.57;5.18;;;;;;;;;;5058598;28;20049;-64
2023/10/19 09:43:45;;;;;;;16.65;6.22;;;;;;;;;;5064896;28;20048;-65
2023/10/19 09:46:12;;;;;;;14.27;6.10;;;;;;;;;;5069186;28;20098;-65
2023/10/19 09:48:42;;;;;;;10.48;5.45;;;;;;;;;;5057840;28;20064;-64
2023/10/19 09:51:11;;;;;;;11.48;5.90;;;;;;;;;;5066818;28;20048;-64
2023/10/19 09:53:39;;;;;;;19.67;6.30;;;;;;;;;;5063315;28;20678;-65
2023/10/19 09:56:08;;;;;;;13.15;6.38;;;;;;;;;;5066008;28;20049;-64
2023/10/19 09:58:38;;;;;;;21.55;7.03;;;;;;;;;;5065404;28;20127;-64
2023/10/19 10:01:11;;;;;;;15.95;7.30;;;;;;;;;;5061862;28;20048;-64
2023/10/19 10:03:49;;;;;;;18.75;7.15;;;;;;;;;;5063178;28;20509;-65
2023/10/19 10:06:20;;;;;;;15.63;7.10;;;;;;;;;;5067954;28;20045;-64
2023/10/19 10:08:48;;;;;;;12.45;6.05;;;;;;;;;;5061065;28;20052;-65
2023/10/19 10:11:22;;;;;;;10.43;6.10;;;;;;;;;;5065738;28;20056;-66
2023/10/19 10:13:53;;;;;;;12.57;7.05;;;;;;;;;;5065003;28;20044;-65
2023/10/19 10:16:21;;;;;;;13.40;6.60;;;;;;;;;;5058099;28;20052;-65
2023/10/19 10:18:50;;;;;;;12.65;6.43;;;;;;;;;;5064641;28;20092;-64
2023/10/19 10:21:20;;;;;;;11.90;7.18;;;;;;;;;;5063455;28;20103;-65
2023/10/19 10:23:48;;;;;;;13.63;7.53;;;;;;;;;;5061512;28;20087;-65
2023/10/19 10:26:16;;;;;;;18.05;7.30;;;;;;;;;;5064944;28;20056;-65
2023/10/19 10:28:47;;;;;;;14.02;6.53;;;;;;;;;;5068383;28;20663;-64
2023/10/19 10:31:14;;;;;;;16.58;7.07;;;;;;;;;;5068919;28;21230;-65
2023/10/19 10:33:49;;;;;;;17.63;7.50;;;;;;;;;;5067746;28;20045;-65
2023/10/19 10:36:17;;;;;;;17.38;7.28;;;;;;;;;;5065096;28;20101;-64
2023/10/19 10:38:46;;;;;;;13.48;6.55;;;;;;;;;;5066477;28;20480;-64
2023/10/19 10:41:14;;;;;;;12.48;6.82;;;;;;;;;;5054915;28;20056;-65
2023/10/19 10:43:54;;;;;;;12.30;6.65;;;;;;;;;;5065666;28;20380;-64
2023/10/19 10:46:22;;;;;;;9.85;6.10;;;;;;;;;;5063037;28;20045;-64
2023/10/19 10:48:49;;;;;;;13.85;7.07;;;;;;;;;;5061186;28;20060;-65
2023/10/19 10:51:17;;;;;;;12.90;7.40;;;;;;;;;;5064692;28;20051;-64
2023/10/19 10:53:45;;;;;;;14.55;7.03;;;;;;;;;;5056219;28;20072;-65
2023/10/19 10:56:13;;;;;;;11.82;7.07;;;;;;;;;;5060522;28;20044;-65
2023/10/19 10:58:41;;;;;;;13.13;7.15;;;;;;;;;;5063992;28;20057;-65
2023/10/19 11:01:10;;;;;;;20.98;7.10;;;;;;;;;;5068863;28;20128;-64
2023/10/19 11:03:37;;;;;;;12.95;6.68;;;;;;;;;;5062502;28;20522;-65
2023/10/19 11:06:07;;;;;;;17.98;6.95;;;;;;;;;;5066077;28;20124;-65
2023/10/19 11:08:35;;;;;;;14.05;6.55;;;;;;;;;;5058926;28;20044;-65
2023/10/19 11:11:06;;;;;;;15.75;7.57;;;;;;;;;;5058125;28;20084;-65
2023/10/19 11:13:35;;;;;;;15.68;7.55;;;;;;;;;;5065797;28;20056;-64
2023/10/19 11:16:05;;;;;;;17.45;7.93;;;;;;;;;;5064053;28;20049;-65
2023/10/19 11:18:35;;;;;;;18.75;8.23;;;;;;;;;;5059934;28;20079;-65
2023/10/19 11:21:05;;;;;;;15.55;8.07;;;;;;;;;;5061155;28;20052;-64
2023/10/19 11:23:43;;;;;;;16.02;7.88;;;;;;;;;;5065891;28;20056;-64
2023/10/19 11:26:10;;;;;;;13.73;7.63;;;;;;;;;;5059339;28;20049;-65
2023/10/19 11:28:42;;;;;;;17.10;7.63;;;;;;;;;;5060233;28;20370;-67
2023/10/19 11:31:16;;;;;;;14.48;7.18;;;;;;;;;;5056534;28;20617;-64
2023/10/19 11:33:44;;;;;;;12.82;6.60;;;;;;;;;;5066847;28;20139;-65
2023/10/19 11:36:13;;;;;;;11.80;6.38;;;;;;;;;;5061326;28;20128;-64
2023/10/19 11:38:43;;;;;;;10.10;6.53;;;;;;;;;;5062512;28;20044;-64
2023/10/19 11:41:11;;;;;;;10.77;6.22;;;;;;;;;;5061481;28;20059;-64
2023/10/19 11:43:42;;;;;;;11.70;5.85;;;;;;;;;;5066341;28;20048;-65
2023/10/19 11:46:09;;;;;;;12.90;6.00;;;;;;;;;;5063383;28;20131;-65
2023/10/19 11:48:37;;;;;;;12.32;6.43;;;;;;;;;;5067329;28;20054;-65
2023/10/19 11:51:05;;;;;;;11.90;6.03;;;;;;;;;;5059041;28;20406;-65
2023/10/19 11:53:36;;;;;;;9.75;6.30;;;;;;;;;;5064152;28;20052;-66
2023/10/19 11:56:05;;;;;;;10.70;6.38;;;;;;;;;;5063185;28;20558;-66
2023/10/19 11:58:34;;;;;;;10.93;6.15;;;;;;;;;;5061297;28;20052;-65
2023/10/19 12:01:05;;;;;;;9.95;6.13;;;;;;;;;;5066040;28;20052;-64
2023/10/19 12:03:35;;;;;;;10.68;5.88;;;;;;;;;;5055507;28;20488;-65
2023/10/19 12:06:04;;;;;;;8.77;5.60;;;;;;;;;;5058228;28;20116;-65
2023/10/19 12:08:31;;;;;;;10.93;6.35;;;;;;;;;;5058937;28;20045;-65
2023/10/19 12:10:58;;;;;;;12.30;5.65;;;;;;;;;;5061760;28;20064;-66
2023/10/19 12:13:25;;;;;;;9.70;5.35;;;;;;;;;;5065689;28;20052;-66
2023/10/19 12:15:54;;;;;;;8.30;4.75;;;;;;;;;;5048378;28;20132;-65
2023/10/19 12:18:23;;;;;;;9.25;5.05;;;;;;;;;;5062392;28;20084;-65
2023/10/19 12:20:50;;;;;;;7.88;4.32;;;;;;;;;;5057237;28;20522;-65
2023/10/19 12:23:18;;;;;;;7.60;4.35;;;;;;;;;;5059516;28;20052;-65
2023/10/19 12:25:45;;;;;;;9.85;4.60;;;;;;;;;;5066427;28;20447;-65
2023/10/19 12:28:14;;;;;;;7.10;4.13;;;;;;;;;;5067047;28;20052;-65
2023/10/19 12:30:42;;;;;;;10.65;4.55;;;;;;;;;;5066900;28;20045;-65
2023/10/19 12:33:12;;;;;;;8.95;4.65;;;;;;;;;;5066991;28;20056;-66
2023/10/19 12:35:53;;;;;;;8.98;4.30;;;;;;;;;;5064738;28;20041;-65
2023/10/19 12:38:21;;;;;;;9.73;5.00;;;;;;;;;;5065707;28;20044;-65
2023/10/19 12:40:50;;;;;;;7.40;4.10;;;;;;;;;;5068428;28;20048;-65
2023/10/19 12:43:19;;;;;;;8.00;3.83;;;;;;;;;;5065995;28;20049;-66
2023/10/19 12:45:50;;;;;;;9.65;4.10;;;;;;;;;;5064639;28;20142;-64
2023/10/19 12:48:18;;;;;;;6.88;4.47;;;;;;;;;;5059210;28;20386;-65
2023/10/19 12:50:47;;;;;;;11.48;4.20;;;;;;;;;;5062406;28;20044;-64
2023/10/19 12:53:15;;;;;;;8.05;4.00;;;;;;;;;;5066451;28;20061;-66
2023/10/19 12:55:43;;;;;;;8.80;3.92;;;;;;;;;;5060040;28;20049;-64
2023/10/19 12:58:11;;;;;;;7.32;4.10;;;;;;;;;;5069543;28;20076;-63
2023/10/19 13:00:43;;;;;;;7.13;3.90;;;;;;;;;;5067652;28;20132;-64
2023/10/19 13:03:15;;;;;;;5.63;3.13;;;;;;;;;;5064951;28;20057;-63
2023/10/19 13:05:44;;;;;;;5.05;2.80;;;;;;;;;;5065820;28;20049;-64
2023/10/19 13:08:14;;;;;;;5.30;3.42;;;;;;;;;;5064251;28;20516;-63
2023/10/19 13:10:43;;;;;;;9.18;3.58;;;;;;;;;;5065792;28;20052;-64
2023/10/19 13:13:12;;;;;;;5.82;3.30;;;;;;;;;;5060714;28;20066;-65
2023/10/19 13:15:40;;;;;;;6.03;3.30;;;;;;;;;;5058197;28;20102;-66
2023/10/19 13:18:09;;;;;;;4.97;3.25;;;;;;;;;;5059467;28;20120;-65
2023/10/19 13:20:37;;;;;;;5.85;3.42;;;;;;;;;;5057778;28;20399;-67
2023/10/19 13:23:06;;;;;;;5.28;3.13;;;;;;;;;;5059340;28;20060;-64
2023/10/19 13:25:46;;;;;;;4.70;3.20;;;;;;;;;;5061036;28;20064;-64
2023/10/19 13:28:14;;;;;;;6.13;3.42;;;;;;;;;;5065852;28;20041;-66
2023/10/19 13:30:42;;;;;;;6.55;3.35;;;;;;;;;;5063217;28;20045;-65
2023/10/19 13:33:09;;;;;;;6.35;3.85;;;;;;;;;;5066485;28;20057;-64
2023/10/19 13:35:38;;;;;;;5.70;3.85;;;;;;;;;;5069170;28;20454;-65
2023/10/19 13:38:05;;;;;;;8.13;3.88;;;;;;;;;;5063242;28;20048;-64
2023/10/19 13:40:34;;;;;;;6.38;3.63;;;;;;;;;;5057242;28;20052;-65
2023/10/19 13:43:01;;;;;;;6.00;3.90;;;;;;;;;;5056009;28;20052;-64
2023/10/19 13:45:29;;;;;;;9.05;4.05;;;;;;;;;;5059015;28;20056;-64
2023/10/19 13:47:57;;;;;;;8.98;4.70;;;;;;;;;;5062030;28;20044;-64
2023/10/19 13:50:26;;;;;;;9.35;4.50;;;;;;;;;;5062449;28;20044;-64
2023/10/19 13:52:56;;;;;;;8.15;4.28;;;;;;;;;;5058231;28;20487;-64
2023/10/19 13:55:24;;;;;;;8.50;5.10;;;;;;;;;;5065214;28;20053;-64
2023/10/19 13:57:52;;;;;;;8.60;5.00;;;;;;;;;;5057213;28;20060;-64
2023/10/19 14:00:23;;;;;;;12.30;5.93;;;;;;;;;;5066027;28;20044;-65
2023/10/19 14:02:51;;;;;;;13.38;6.00;;;;;;;;;;5067673;28;20462;-64
2023/10/19 14:05:19;;;;;;;14.25;5.80;;;;;;;;;;5067868;28;20430;-64
2023/10/19 14:07:47;;;;;;;15.55;6.38;;;;;;;;;;5065803;28;20471;-63
2023/10/19 14:10:16;;;;;;;14.95;6.90;;;;;;;;;;5060497;28;20095;-64
2023/10/19 14:12:43;;;;;;;15.00;7.00;;;;;;;;;;5066376;28;20056;-64
2023/10/19 14:15:17;;;;;;;13.70;6.72;;;;;;;;;;5064249;28;20554;-64
2023/10/19 14:17:45;;;;;;;13.60;7.20;;;;;;;;;;5064621;28;20048;-63
2023/10/19 14:20:13;;;;;;;13.82;6.95;;;;;;;;;;5062540;28;20049;-64
2023/10/19 14:22:43;;;;;;;13.93;7.72;;;;;;;;;;5058278;28;20051;-64
2023/10/19 14:25:13;;;;;;;14.77;8.23;;;;;;;;;;5060257;28;20060;-65
2023/10/19 14:27:43;;;;;;;13.85;7.72;;;;;;;;;;5061895;28;20102;-64
2023/10/19 14:30:12;;;;;;;16.35;8.10;;;;;;;;;;5065297;28;20127;-64
2023/10/19 14:32:41;;;;;;;18.73;7.68;;;;;;;;;;5057262;28;20491;-65
2023/10/19 14:35:11;;;;;;;14.02;7.32;;;;;;;;;;5056979;28;20515;-65
2023/10/19 14:37:39;;;;;;;15.80;7.68;;;;;;;;;;5056026;28;20071;-65
2023/10/19 14:40:09;;;;;;;19.63;8.15;;;;;;;;;;5056765;28;20114;-64
2023/10/19 14:42:37;;;;;;;16.83;7.22;;;;;;;;;;5057808;28;20048;-64
2023/10/19 14:45:09;;;;;;;14.10;7.00;;;;;;;;;;5056234;28;20059;-64
2023/10/19 14:47:36;;;;;;;12.98;6.57;;;;;;;;;;5054790;28;20553;-64